createdAt,value
2023-07-31T00:00:12.263Z,99.90
2023-07-31T00:02:44.171Z,99.90
2023-07-31T00:05:17.117Z,99.90
2023-07-31T00:07:48.904Z,99.90
2023-07-31T00:10:20.768Z,99.90
2023-07-31T00:12:52.540Z,99.90
2023-07-31T00:15:24.360Z,99.90
2023-07-31T00:17:56.284Z,99.90
2023-07-31T00:20:28.154Z,99.90
2023-07-31T00:22:59.893Z,99.90
2023-07-31T00:25:31.676Z,99.90
2023-07-31T00:28:03.759Z,99.90
2023-07-31T00:30:35.549Z,99.90
2023-07-31T00:33:07.386Z,99.90
2023-07-31T00:35:39.217Z,99.90
2023-07-31T00:38:11.014Z,99.90
2023-07-31T00:40:42.906Z,99.90
2023-07-31T00:43:14.721Z,99.90
2023-07-31T00:45:46.847Z,99.90
2023-07-31T00:48:18.777Z,99.90
2023-07-31T00:50:51.258Z,99.90
2023-07-31T00:53:23.136Z,99.90
2023-07-31T00:55:56.058Z,99.90
2023-07-31T00:58:28.030Z,99.90
2023-07-31T01:00:59.938Z,99.90
2023-07-31T01:03:31.940Z,99.90
2023-07-31T01:06:34.793Z,99.90
2023-07-31T01:09:25.593Z,99.90
2023-07-31T01:12:05.196Z,99.90
2023-07-31T01:14:36.988Z,99.90
2023-07-31T01:17:08.813Z,99.90
2023-07-31T01:19:40.683Z,99.90
2023-07-31T01:22:34.371Z,99.90
2023-07-31T01:25:33.185Z,99.90
2023-07-31T01:28:10.285Z,99.90
2023-07-31T01:30:49.679Z,99.90
2023-07-31T01:33:21.698Z,99.90
2023-07-31T01:35:53.725Z,99.90
2023-07-31T01:38:26.040Z,99.90
2023-07-31T01:40:57.924Z,99.90
2023-07-31T01:43:31.294Z,99.90
2023-07-31T01:46:03.172Z,99.90
2023-07-31T01:48:37.758Z,99.90
2023-07-31T01:51:09.611Z,99.90
2023-07-31T01:53:41.881Z,99.90
2023-07-31T01:56:13.759Z,99.90
2023-07-31T01:58:45.654Z,99.90
2023-07-31T02:01:17.404Z,99.90
2023-07-31T02:03:49.281Z,99.90
2023-07-31T02:06:21.121Z,99.90
2023-07-31T02:08:53.089Z,99.90
2023-07-31T02:11:24.851Z,99.90
2023-07-31T02:13:56.657Z,99.90
2023-07-31T02:16:28.433Z,99.90
2023-07-31T02:19:00.231Z,99.90
2023-07-31T02:21:31.995Z,99.90
2023-07-31T02:24:03.911Z,99.90
2023-07-31T02:26:35.652Z,99.90
2023-07-31T02:29:08.193Z,99.90
2023-07-31T02:31:40.133Z,99.90
2023-07-31T02:34:11.943Z,99.90
2023-07-31T02:36:43.700Z,99.90
2023-07-31T02:39:15.443Z,99.90
2023-07-31T02:41:47.876Z,99.90
2023-07-31T02:44:19.653Z,99.90
2023-07-31T02:46:51.632Z,99.90
2023-07-31T02:49:23.461Z,99.90
2023-07-31T02:51:55.212Z,99.90
2023-07-31T02:54:27.039Z,99.90
2023-07-31T02:56:58.905Z,99.90
2023-07-31T02:59:30.710Z,99.90
2023-07-31T03:02:02.488Z,99.90
2023-07-31T03:04:34.295Z,99.90
2023-07-31T03:07:06.474Z,99.90
2023-07-31T03:09:38.248Z,99.90
2023-07-31T03:12:10.155Z,99.90
2023-07-31T03:14:42.115Z,99.90
2023-07-31T03:17:13.899Z,99.90
2023-07-31T03:19:45.870Z,99.90
2023-07-31T03:22:17.758Z,99.90
2023-07-31T03:24:49.504Z,99.90
2023-07-31T03:27:21.289Z,99.90
2023-07-31T03:29:53.128Z,99.90
2023-07-31T03:32:24.930Z,99.90
2023-07-31T03:34:56.678Z,99.90
2023-07-31T03:37:28.495Z,99.90
2023-07-31T03:40:00.261Z,99.90
2023-07-31T03:42:32.044Z,99.90
2023-07-31T03:45:04.146Z,99.90
2023-07-31T03:47:36.053Z,99.90
2023-07-31T03:50:08.797Z,99.90
2023-07-31T03:52:40.563Z,99.90
2023-07-31T03:55:12.352Z,99.90
2023-07-31T03:57:44.153Z,99.90
2023-07-31T04:00:16.084Z,99.90
2023-07-31T04:02:47.844Z,99.90
2023-07-31T04:05:19.824Z,99.90
2023-07-31T04:07:51.618Z,99.90
2023-07-31T04:10:23.992Z,99.90
2023-07-31T04:12:55.717Z,99.90
2023-07-31T04:15:27.591Z,99.90
2023-07-31T04:17:59.358Z,99.90
2023-07-31T04:20:31.199Z,99.90
2023-07-31T04:23:02.929Z,99.90
2023-07-31T04:25:35.984Z,99.90
2023-07-31T04:28:08.627Z,99.90
2023-07-31T04:30:40.604Z,99.90
2023-07-31T04:33:12.367Z,99.90
2023-07-31T04:35:53.315Z,99.90
2023-07-31T04:38:25.111Z,99.90
2023-07-31T04:40:56.859Z,99.90
2023-07-31T04:43:28.680Z,99.90
2023-07-31T04:46:00.596Z,99.90
2023-07-31T04:48:32.387Z,99.90
2023-07-31T04:51:04.245Z,99.90
2023-07-31T04:53:36.435Z,99.90
2023-07-31T04:56:08.220Z,99.90
2023-07-31T04:58:40.033Z,98.50
2023-07-31T05:01:11.773Z,95.80
2023-07-31T05:03:43.602Z,93.70
2023-07-31T05:06:16.425Z,92.30
2023-07-31T05:08:49.391Z,91.10
2023-07-31T05:11:21.208Z,90.50
2023-07-31T05:13:52.947Z,90.20
2023-07-31T05:16:24.841Z,89.70
2023-07-31T05:18:56.623Z,88.80
2023-07-31T05:21:28.368Z,87.00
2023-07-31T05:24:00.149Z,87.40
2023-07-31T05:26:31.929Z,87.10
2023-07-31T05:29:03.708Z,90.10
2023-07-31T05:31:35.590Z,90.50
2023-07-31T05:34:07.353Z,90.90
2023-07-31T05:36:39.283Z,91.60
2023-07-31T05:39:11.342Z,92.40
2023-07-31T05:41:43.194Z,93.60
2023-07-31T05:44:14.983Z,93.50
2023-07-31T05:46:46.959Z,93.80
2023-07-31T05:49:18.690Z,94.10
2023-07-31T05:51:50.498Z,93.10
2023-07-31T05:54:22.288Z,93.70
2023-07-31T05:56:54.102Z,94.90
2023-07-31T05:59:25.837Z,95.60
2023-07-31T06:01:58.184Z,97.10
2023-07-31T06:04:30.115Z,98.20
2023-07-31T06:07:01.993Z,98.90
2023-07-31T06:09:33.771Z,99.90
2023-07-31T06:12:07.890Z,99.90
2023-07-31T06:14:39.613Z,99.90
2023-07-31T06:17:11.325Z,99.90
2023-07-31T06:19:43.053Z,99.90
2023-07-31T06:22:14.828Z,99.90
2023-07-31T06:24:47.898Z,99.90
2023-07-31T06:27:19.628Z,99.90
2023-07-31T06:29:51.543Z,99.80
2023-07-31T06:32:23.422Z,98.90
2023-07-31T06:34:55.232Z,99.60
2023-07-31T06:37:27.021Z,99.40
2023-07-31T06:39:58.981Z,98.20
2023-07-31T06:42:30.815Z,98.10
2023-07-31T06:45:03.416Z,98.10
2023-07-31T06:47:35.218Z,98.40
2023-07-31T06:50:07.424Z,97.40
2023-07-31T06:52:39.166Z,96.30
2023-07-31T06:55:22.597Z,97.30
2023-07-31T06:57:55.790Z,96.60
2023-07-31T07:00:28.176Z,97.90
2023-07-31T07:03:00.077Z,98.40
2023-07-31T07:05:31.877Z,98.10
2023-07-31T07:08:03.750Z,98.30
2023-07-31T07:10:35.573Z,97.60
2023-07-31T07:13:07.338Z,98.50
2023-07-31T07:15:39.087Z,98.70
2023-07-31T07:18:11.812Z,98.70
2023-07-31T07:20:54.373Z,98.00
2023-07-31T07:23:26.483Z,97.70
2023-07-31T07:25:58.276Z,98.20
2023-07-31T07:28:30.089Z,97.80
2023-07-31T07:31:02.128Z,98.80
2023-07-31T07:33:33.969Z,98.10
2023-07-31T07:36:06.882Z,97.90
2023-07-31T07:38:40.315Z,97.60
2023-07-31T07:41:12.038Z,98.50
2023-07-31T07:43:44.016Z,98.90
2023-07-31T07:46:16.005Z,98.40
2023-07-31T07:48:47.782Z,97.20
2023-07-31T07:51:19.585Z,98.50
2023-07-31T07:53:51.374Z,98.20
2023-07-31T07:56:26.287Z,97.80
2023-07-31T07:58:59.031Z,98.20
2023-07-31T08:01:30.772Z,98.90
2023-07-31T08:04:02.623Z,99.90
2023-07-31T08:06:34.559Z,98.90
2023-07-31T08:09:07.649Z,97.20
2023-07-31T08:11:39.591Z,97.40
2023-07-31T08:14:11.340Z,96.30
2023-07-31T08:16:43.876Z,96.70
2023-07-31T08:19:15.972Z,97.20
2023-07-31T08:21:47.869Z,96.10
2023-07-31T08:24:19.678Z,97.10
2023-07-31T08:26:51.413Z,98.00
2023-07-31T08:29:23.241Z,97.80
2023-07-31T08:31:54.993Z,98.00
2023-07-31T08:34:26.779Z,98.60
2023-07-31T08:36:58.532Z,99.00
2023-07-31T08:39:30.410Z,97.60
2023-07-31T08:42:02.202Z,98.50
2023-07-31T08:44:34.837Z,98.60
2023-07-31T08:47:07.530Z,98.60
2023-07-31T08:49:39.890Z,99.10
2023-07-31T08:52:11.802Z,98.60
2023-07-31T08:54:43.688Z,98.00
2023-07-31T08:57:16.679Z,97.60
2023-07-31T08:59:48.614Z,97.00
2023-07-31T09:02:21.924Z,96.20
2023-07-31T09:04:53.961Z,98.10
2023-07-31T09:07:26.016Z,96.40
2023-07-31T09:09:58.294Z,95.50
2023-07-31T09:12:30.227Z,95.90
2023-07-31T09:15:02.141Z,94.70
2023-07-31T09:17:37.301Z,95.20
2023-07-31T09:20:22.553Z,93.70
2023-07-31T09:22:54.576Z,93.90
2023-07-31T09:25:27.520Z,94.20
2023-07-31T09:28:01.287Z,93.10
2023-07-31T09:30:46.215Z,94.00
2023-07-31T09:33:19.010Z,91.90
2023-07-31T09:35:50.775Z,91.90
2023-07-31T09:38:22.624Z,94.10
2023-07-31T09:40:54.492Z,93.00
2023-07-31T09:43:26.317Z,94.50
2023-07-31T09:45:59.415Z,95.20
2023-07-31T09:48:31.671Z,95.10
2023-07-31T09:51:05.672Z,95.20
2023-07-31T09:53:37.473Z,93.90
2023-07-31T09:56:09.544Z,94.70
2023-07-31T09:58:41.391Z,93.30
2023-07-31T10:01:14.114Z,94.70
2023-07-31T10:03:47.322Z,94.20
2023-07-31T10:06:20.403Z,93.90
2023-07-31T10:08:54.173Z,93.50
2023-07-31T10:11:28.795Z,92.80
2023-07-31T10:14:00.972Z,91.80
2023-07-31T10:16:33.382Z,91.50
2023-07-31T10:19:06.429Z,91.10
2023-07-31T10:21:38.806Z,92.30
2023-07-31T10:24:10.794Z,92.90
2023-07-31T10:26:45.988Z,92.60
2023-07-31T10:29:20.060Z,92.20
2023-07-31T10:31:52.817Z,91.80
2023-07-31T10:34:25.254Z,90.50
2023-07-31T10:37:27.522Z,92.20
2023-07-31T10:40:11.013Z,91.20
2023-07-31T10:43:03.422Z,88.20
2023-07-31T10:45:39.160Z,87.20
2023-07-31T10:48:16.262Z,88.50
2023-07-31T10:50:53.729Z,87.80
2023-07-31T10:53:33.936Z,89.70
2023-07-31T10:56:07.842Z,88.90
2023-07-31T10:58:39.640Z,90.00
2023-07-31T11:01:11.629Z,88.40
2023-07-31T11:03:50.606Z,88.70
2023-07-31T11:06:22.603Z,89.50
2023-07-31T11:08:54.422Z,87.20
2023-07-31T11:11:26.149Z,90.20
2023-07-31T11:13:58.025Z,85.50
2023-07-31T11:16:29.903Z,85.50
2023-07-31T11:19:01.873Z,88.90
2023-07-31T11:21:33.651Z,86.70
2023-07-31T11:24:05.687Z,87.10
2023-07-31T11:26:37.624Z,90.00
2023-07-31T11:29:12.892Z,88.00
2023-07-31T11:31:44.956Z,87.40
2023-07-31T11:34:18.387Z,86.10
2023-07-31T11:36:57.149Z,89.10
2023-07-31T11:39:29.343Z,89.00
2023-07-31T11:42:02.247Z,86.50
2023-07-31T11:44:48.860Z,85.50
2023-07-31T11:47:21.218Z,84.50
2023-07-31T11:49:52.992Z,84.20
2023-07-31T11:52:25.652Z,85.00
2023-07-31T11:54:58.383Z,83.60
2023-07-31T11:57:30.686Z,83.20
2023-07-31T12:00:03.957Z,85.80
2023-07-31T12:02:36.983Z,84.90
2023-07-31T12:05:13.770Z,85.00
2023-07-31T12:07:53.352Z,82.40
2023-07-31T12:10:29.816Z,83.60
2023-07-31T12:13:02.127Z,82.80
2023-07-31T12:15:44.949Z,82.60
2023-07-31T12:18:21.644Z,80.10
2023-07-31T12:20:58.344Z,82.10
2023-07-31T12:23:34.631Z,81.60
2023-07-31T12:26:14.912Z,81.30
2023-07-31T12:28:51.496Z,81.60
2023-07-31T12:31:23.849Z,79.60
2023-07-31T12:33:56.900Z,79.60
2023-07-31T12:36:29.869Z,78.40
2023-07-31T12:39:01.629Z,77.80
2023-07-31T12:41:33.445Z,76.80
2023-07-31T12:44:05.528Z,77.20
2023-07-31T12:46:37.401Z,76.60
2023-07-31T12:49:09.306Z,75.40
2023-07-31T12:51:41.053Z,75.70
2023-07-31T12:54:13.352Z,76.30
2023-07-31T12:56:45.881Z,77.20
2023-07-31T12:59:17.615Z,78.70
2023-07-31T13:01:49.701Z,77.70
2023-07-31T13:04:21.526Z,77.90
2023-07-31T13:06:53.281Z,79.50
2023-07-31T13:09:25.008Z,77.00
2023-07-31T13:11:56.759Z,79.00
2023-07-31T13:14:29.489Z,79.20
2023-07-31T13:17:01.242Z,78.60
2023-07-31T13:19:33.016Z,79.90
2023-07-31T13:22:05.143Z,78.50
2023-07-31T13:24:36.905Z,77.60
2023-07-31T13:27:08.634Z,79.00
2023-07-31T13:29:40.358Z,81.00
2023-07-31T13:32:12.457Z,80.30
2023-07-31T13:34:44.851Z,80.70
2023-07-31T13:37:17.103Z,82.50
2023-07-31T13:39:48.840Z,81.00
2023-07-31T13:42:20.545Z,80.50
2023-07-31T13:44:52.295Z,79.80
2023-07-31T13:47:24.172Z,82.30
2023-07-31T13:49:55.986Z,80.10
2023-07-31T13:52:27.736Z,80.10
2023-07-31T13:54:59.487Z,81.00
2023-07-31T13:57:31.226Z,82.90
2023-07-31T14:00:03.485Z,83.70
2023-07-31T14:02:36.843Z,83.20
2023-07-31T14:05:10.622Z,83.30
2023-07-31T14:07:42.408Z,84.00
2023-07-31T14:10:14.175Z,84.20
2023-07-31T14:12:45.920Z,82.70
2023-07-31T14:15:17.707Z,83.20
2023-07-31T14:17:49.673Z,83.10
2023-07-31T14:20:22.055Z,83.00
2023-07-31T14:22:53.947Z,81.00
2023-07-31T14:25:25.995Z,82.10
2023-07-31T14:27:57.859Z,80.60
2023-07-31T14:30:29.673Z,80.90
2023-07-31T14:33:03.403Z,81.60
2023-07-31T14:35:35.951Z,81.50
2023-07-31T14:38:07.697Z,82.10
2023-07-31T14:40:39.559Z,81.20
2023-07-31T14:43:11.302Z,82.00
2023-07-31T14:45:43.131Z,81.40
2023-07-31T14:48:15.145Z,81.30
2023-07-31T14:50:47.044Z,82.00
2023-07-31T14:53:18.790Z,82.20
2023-07-31T14:55:50.596Z,80.80
2023-07-31T14:58:22.317Z,79.60
2023-07-31T15:00:54.233Z,80.20
2023-07-31T15:03:26.342Z,80.80
2023-07-31T15:05:58.273Z,79.10
2023-07-31T15:08:30.044Z,78.40
2023-07-31T15:11:01.783Z,76.50
2023-07-31T15:13:33.629Z,77.60
2023-07-31T15:16:05.556Z,77.60
2023-07-31T15:18:37.393Z,78.80
2023-07-31T15:21:10.288Z,77.30
2023-07-31T15:23:42.116Z,77.90
2023-07-31T15:26:13.950Z,77.50
2023-07-31T15:28:51.199Z,79.00
2023-07-31T15:31:23.547Z,79.70
2023-07-31T15:33:55.364Z,80.80
2023-07-31T15:36:27.131Z,81.90
2023-07-31T15:38:59.100Z,82.30
2023-07-31T15:41:30.873Z,83.40
2023-07-31T15:44:02.810Z,83.60
2023-07-31T15:46:34.859Z,84.80
2023-07-31T15:49:06.659Z,83.30
2023-07-31T15:51:38.456Z,83.90
2023-07-31T15:54:10.214Z,83.90
2023-07-31T15:56:42.346Z,83.60
2023-07-31T15:59:14.178Z,84.40
2023-07-31T16:01:46.018Z,84.60
2023-07-31T16:04:17.782Z,84.70
2023-07-31T16:06:49.559Z,84.40
2023-07-31T16:09:21.355Z,85.90
2023-07-31T16:11:53.227Z,85.10
2023-07-31T16:14:25.037Z,86.40
2023-07-31T16:16:56.791Z,86.00
2023-07-31T16:19:28.560Z,86.40
2023-07-31T16:22:00.321Z,86.90
2023-07-31T16:24:32.050Z,86.90
2023-07-31T16:27:04.243Z,87.00
2023-07-31T16:29:36.039Z,89.00
2023-07-31T16:32:11.741Z,88.30
2023-07-31T16:34:44.250Z,87.60
2023-07-31T16:37:15.982Z,88.10
2023-07-31T16:39:49.894Z,86.80
2023-07-31T16:42:22.712Z,88.30
2023-07-31T16:44:54.434Z,87.50
2023-07-31T16:47:26.206Z,87.90
2023-07-31T16:49:58.042Z,89.00
2023-07-31T16:52:31.138Z,88.50
2023-07-31T16:55:02.919Z,88.80
2023-07-31T16:57:34.666Z,89.00
2023-07-31T17:00:06.962Z,88.40
2023-07-31T17:02:39.232Z,90.10
2023-07-31T17:05:11.159Z,87.60
2023-07-31T17:07:42.884Z,89.20
2023-07-31T17:10:15.303Z,89.50
2023-07-31T17:12:47.090Z,88.70
2023-07-31T17:15:18.851Z,90.10
2023-07-31T17:17:57.264Z,90.20
2023-07-31T17:20:29.685Z,88.70
2023-07-31T17:23:01.446Z,90.00
2023-07-31T17:25:33.196Z,90.10
2023-07-31T17:28:05.164Z,90.40
2023-07-31T17:30:37.099Z,90.90
2023-07-31T17:33:09.194Z,91.40
2023-07-31T17:35:41.208Z,90.70
2023-07-31T17:38:13.488Z,90.70
2023-07-31T17:40:45.232Z,91.00
2023-07-31T17:43:16.972Z,91.10
2023-07-31T17:45:48.692Z,91.10
2023-07-31T17:48:20.476Z,91.00
2023-07-31T17:50:53.434Z,91.30
2023-07-31T17:53:25.192Z,91.40
2023-07-31T17:55:57.068Z,91.60
2023-07-31T17:58:29.018Z,91.80
2023-07-31T18:01:00.805Z,91.80
2023-07-31T18:03:32.749Z,91.80
2023-07-31T18:06:04.583Z,91.90
2023-07-31T18:08:36.355Z,92.20
2023-07-31T18:11:08.232Z,92.30
2023-07-31T18:13:39.959Z,92.20
2023-07-31T18:16:11.701Z,92.90
2023-07-31T18:18:43.424Z,92.90
2023-07-31T18:21:15.169Z,93.40
2023-07-31T18:23:46.960Z,93.70
2023-07-31T18:26:18.776Z,94.20
2023-07-31T18:28:50.532Z,94.70
2023-07-31T18:31:24.195Z,94.60
2023-07-31T18:33:56.513Z,94.80
2023-07-31T18:36:28.277Z,95.20
2023-07-31T18:39:00.027Z,95.60
2023-07-31T18:41:31.867Z,96.10
2023-07-31T18:44:03.711Z,96.50
2023-07-31T18:46:35.545Z,96.50
2023-07-31T18:49:07.342Z,97.00
2023-07-31T18:51:39.612Z,97.40
2023-07-31T18:54:11.425Z,97.70
2023-07-31T18:56:43.150Z,97.40
2023-07-31T18:59:14.877Z,97.40
2023-07-31T19:01:47.020Z,97.50
2023-07-31T19:04:18.866Z,98.20
2023-07-31T19:06:50.688Z,98.40
2023-07-31T19:09:33.861Z,98.80
2023-07-31T19:12:05.972Z,98.80
2023-07-31T19:14:37.725Z,98.40
2023-07-31T19:17:09.514Z,98.50
2023-07-31T19:19:41.288Z,98.50
2023-07-31T19:22:13.105Z,98.60
2023-07-31T19:24:46.417Z,98.90
2023-07-31T19:27:18.286Z,99.10
2023-07-31T19:29:50.033Z,99.50
2023-07-31T19:32:21.757Z,99.60
2023-07-31T19:34:54.224Z,99.70
2023-07-31T19:37:25.961Z,99.90
2023-07-31T19:39:57.890Z,99.80
2023-07-31T19:42:29.750Z,99.80
2023-07-31T19:45:01.520Z,99.80
2023-07-31T19:47:33.474Z,99.70
2023-07-31T19:50:05.789Z,99.70
2023-07-31T19:52:37.694Z,99.90
2023-07-31T19:55:10.089Z,99.90
2023-07-31T19:57:41.830Z,99.90
2023-07-31T20:00:13.793Z,99.90
2023-07-31T20:02:45.560Z,99.90
2023-07-31T20:05:17.466Z,99.90
2023-07-31T20:07:50.132Z,99.90
2023-07-31T20:10:21.885Z,99.90
2023-07-31T20:12:54.109Z,99.90
2023-07-31T20:15:25.844Z,99.90
2023-07-31T20:17:57.915Z,99.90
2023-07-31T20:20:30.034Z,99.90
2023-07-31T20:23:04.858Z,99.90
2023-07-31T20:25:37.444Z,99.90
2023-07-31T20:28:09.188Z,99.90
2023-07-31T20:30:40.949Z,99.90
2023-07-31T20:33:12.864Z,99.90
2023-07-31T20:35:44.667Z,99.90
2023-07-31T20:38:16.661Z,99.90
2023-07-31T20:40:51.188Z,99.90
2023-07-31T20:43:22.935Z,99.90
2023-07-31T20:45:54.773Z,99.90
2023-07-31T20:48:26.560Z,99.90
2023-07-31T20:51:02.827Z,99.90
2023-07-31T20:53:34.617Z,99.90
2023-07-31T20:56:06.389Z,99.90
2023-07-31T20:58:39.694Z,99.90
2023-07-31T21:01:11.479Z,99.90
2023-07-31T21:03:43.333Z,99.90
2023-07-31T21:06:17.530Z,99.90
2023-07-31T21:08:49.301Z,99.90
2023-07-31T21:11:21.074Z,99.90
2023-07-31T21:13:52.927Z,99.90
2023-07-31T21:16:25.493Z,99.90
2023-07-31T21:18:58.706Z,99.90
2023-07-31T21:21:30.475Z,99.90
2023-07-31T21:24:02.199Z,99.90
2023-07-31T21:26:33.912Z,99.90
2023-07-31T21:29:05.658Z,99.90
2023-07-31T21:31:37.455Z,99.90
2023-07-31T21:34:09.222Z,99.90
2023-07-31T21:36:41.222Z,99.90
2023-07-31T21:39:13.440Z,99.90
2023-07-31T21:41:45.209Z,99.90
2023-07-31T21:44:16.962Z,99.90
2023-07-31T21:46:48.796Z,99.90
2023-07-31T21:49:20.584Z,99.90
2023-07-31T21:51:52.327Z,99.90
2023-07-31T21:54:24.061Z,99.90
2023-07-31T21:56:55.800Z,99.90
2023-07-31T21:59:27.535Z,99.90
2023-07-31T22:01:59.374Z,99.90
2023-07-31T22:04:31.120Z,99.90
2023-07-31T22:07:02.972Z,99.90
2023-07-31T22:09:34.684Z,99.90
2023-07-31T22:12:06.717Z,99.90
2023-07-31T22:14:38.500Z,99.90
2023-07-31T22:17:10.260Z,99.90
2023-07-31T22:19:42.104Z,99.90
2023-07-31T22:22:13.955Z,99.90
2023-07-31T22:24:49.044Z,99.90
2023-07-31T22:27:20.922Z,99.90
2023-07-31T22:29:52.672Z,99.90
2023-07-31T22:32:24.410Z,99.90
2023-07-31T22:34:56.156Z,99.90
2023-07-31T22:37:27.910Z,99.90
2023-07-31T22:39:59.643Z,99.90
2023-07-31T22:42:31.396Z,99.90
2023-07-31T22:45:03.481Z,99.90
2023-07-31T22:47:35.261Z,99.90
2023-07-31T22:50:08.433Z,99.90
2023-07-31T22:52:40.293Z,99.90
2023-07-31T22:55:12.194Z,99.90
2023-07-31T22:57:43.927Z,99.90
2023-07-31T23:00:16.086Z,99.90
2023-07-31T23:02:47.900Z,99.90
2023-07-31T23:05:19.782Z,99.90
2023-07-31T23:07:51.781Z,99.90
2023-07-31T23:10:24.203Z,99.90
2023-07-31T23:12:55.933Z,99.90
2023-07-31T23:15:27.687Z,99.90
2023-07-31T23:17:59.957Z,99.90
2023-07-31T23:20:33.380Z,99.90
2023-07-31T23:23:05.140Z,99.90
2023-07-31T23:25:37.416Z,99.90
2023-07-31T23:28:09.743Z,99.90
2023-07-31T23:30:41.836Z,99.90
2023-07-31T23:33:13.873Z,99.90
2023-07-31T23:35:45.700Z,99.90
2023-07-31T23:38:17.545Z,99.90
2023-07-31T23:40:49.332Z,99.90
2023-07-31T23:43:21.125Z,99.90
2023-07-31T23:45:52.980Z,99.90
2023-07-31T23:48:25.910Z,99.90
2023-07-31T23:50:58.730Z,99.90
2023-07-31T23:53:33.657Z,99.90
2023-07-31T23:56:05.530Z,99.90
2023-07-31T23:58:37.720Z,99.90
